Time;durP1;ratioP1;P1;durP2;ratioP2;P2;SDS_P1;SDS_P2;PMS_P1;PMS_P2;Temp;Humidity;BMP_temperature;BMP_pressure;BME280_temperature;BME280_humidity;BME280_pressure;Samples;Min_cycle;Max_cycle;Signal;HPM_P1;HPM_P2
2023/07/08 00:00:24;;;;;;;;;;;22.30;63.00;;;;;;5109513;28;20010;-66
2023/07/08 00:02:50;;;;;;;;;;;22.30;62.80;;;;;;5115974;27;19911;-66
2023/07/08 00:05:17;;;;;;;;;;;22.30;63.00;;;;;;5112978;27;19908;-66
2023/07/08 00:07:43;;;;;;;;;;;22.20;62.90;;;;;;5108984;28;19908;-66
2023/07/08 00:10:17;;;;;;;;;;;22.20;63.00;;;;;;5109409;28;19918;-66
2023/07/08 00:12:43;;;;;;;;;;;22.20;63.00;;;;;;5109255;27;19912;-66
2023/07/08 00:15:09;;;;;;;;;;;22.20;62.80;;;;;;5109205;28;19964;-66
2023/07/08 00:17:35;;;;;;;;;;;22.20;63.20;;;;;;5107804;28;20234;-66
2023/07/08 00:20:00;;;;;;;;;;;22.20;63.00;;;;;;5109261;28;19951;-66
2023/07/08 00:22:26;;;;;;;;;;;22.20;63.20;;;;;;5109150;28;19918;-66
2023/07/08 00:24:51;;;;;;;;;;;22.20;63.10;;;;;;5108658;28;20020;-66
2023/07/08 00:27:17;;;;;;;;;;;22.10;63.10;;;;;;5108980;28;19908;-66
2023/07/08 00:29:43;;;;;;;;;;;22.10;63.20;;;;;;5108890;28;19916;-66
2023/07/08 00:32:15;;;;;;;;;;;22.10;63.00;;;;;;5109198;28;20002;-66
2023/07/08 00:34:41;;;;;;;;;;;22.10;63.20;;;;;;5109021;28;20349;-66
2023/07/08 00:37:13;;;;;;;;;;;22.10;63.10;;;;;;5108937;28;20308;-66
2023/07/08 00:39:38;;;;;;;;;;;22.10;63.50;;;;;;5106827;28;19915;-66
2023/07/08 00:42:13;;;;;;;;;;;22.00;63.40;;;;;;5107634;28;19961;-66
2023/07/08 00:44:39;;;;;;;;;;;22.00;63.50;;;;;;5107448;28;19918;-66
2023/07/08 00:47:09;;;;;;;;;;;22.00;63.00;;;;;;5107520;28;20011;-66
2023/07/08 00:49:40;;;;;;;;;;;22.00;63.50;;;;;;5109224;28;19969;-66
2023/07/08 00:52:35;;;;;;;;;;;22.00;63.50;;;;;;5108956;28;19934;-66
2023/07/08 00:55:04;;;;;;;;;;;21.90;63.40;;;;;;5086644;28;19916;-67
2023/07/08 00:57:31;;;;;;;;;;;22.00;63.20;;;;;;5108229;28;19912;-66
2023/07/08 00:59:59;;;;;;;;;;;22.00;63.50;;;;;;5107295;28;19936;-66
2023/07/08 01:02:26;;;;;;;;;;;22.00;63.10;;;;;;5107313;28;19919;-66
2023/07/08 01:04:57;;;;;;;;;;;21.90;63.20;;;;;;5108964;28;20376;-66
2023/07/08 01:07:24;;;;;;;;;;;21.90;62.90;;;;;;5108283;28;19912;-66
2023/07/08 01:09:54;;;;;;;;;;;21.90;63.10;;;;;;5108980;28;19912;-66
2023/07/08 01:12:27;;;;;;;;;;;21.90;63.90;;;;;;5108906;28;20029;-66
2023/07/08 01:14:53;;;;;;;;;;;21.80;63.20;;;;;;5108897;28;19946;-66
2023/07/08 01:17:20;;;;;;;;;;;21.90;63.70;;;;;;5108643;28;20026;-66
2023/07/08 01:19:45;;;;;;;;;;;21.80;63.40;;;;;;5108688;28;19911;-66
2023/07/08 01:22:11;;;;;;;;;;;21.80;63.90;;;;;;5112017;28;19920;-66
2023/07/08 01:24:38;;;;;;;;;;;21.80;63.90;;;;;;5115390;27;19911;-66
2023/07/08 01:27:05;;;;;;;;;;;21.80;63.30;;;;;;5115766;27;19911;-66
2023/07/08 01:29:31;;;;;;;;;;;21.70;64.00;;;;;;5109358;28;19912;-66
2023/07/08 01:31:57;;;;;;;;;;;21.70;64.00;;;;;;5108883;28;19919;-66
2023/07/08 01:34:23;;;;;;;;;;;21.70;64.20;;;;;;5101298;28;20530;-66
2023/07/08 01:36:52;;;;;;;;;;;21.70;64.10;;;;;;5112306;28;19918;-66
2023/07/08 01:39:19;;;;;;;;;;;21.70;64.20;;;;;;5109034;28;19964;-66
2023/07/08 01:41:45;;;;;;;;;;;21.70;64.20;;;;;;5112111;28;19919;-66
2023/07/08 01:44:29;;;;;;;;;;;21.60;63.90;;;;;;5112245;28;20506;-66
2023/07/08 01:46:57;;;;;;;;;;;21.60;64.00;;;;;;5111913;28;20421;-66
2023/07/08 01:49:23;;;;;;;;;;;21.60;64.40;;;;;;5112043;28;19912;-66
2023/07/08 01:51:49;;;;;;;;;;;21.60;64.30;;;;;;5110890;28;20412;-66
2023/07/08 01:54:15;;;;;;;;;;;21.60;64.50;;;;;;5105603;28;19983;-66
2023/07/08 01:56:40;;;;;;;;;;;21.50;64.50;;;;;;5104258;28;20061;-66
2023/07/08 01:59:06;;;;;;;;;;;21.50;64.40;;;;;;5111765;28;19918;-66
2023/07/08 02:01:31;;;;;;;;;;;21.50;64.40;;;;;;5112124;28;20284;-66
2023/07/08 02:03:57;;;;;;;;;;;21.40;64.40;;;;;;5111704;28;19911;-66
2023/07/08 02:06:22;;;;;;;;;;;21.40;64.00;;;;;;5111479;28;19911;-66
2023/07/08 02:08:48;;;;;;;;;;;21.40;64.50;;;;;;5111586;28;19912;-66
2023/07/08 02:11:13;;;;;;;;;;;21.30;64.20;;;;;;5111790;28;19922;-66
2023/07/08 02:13:39;;;;;;;;;;;21.30;64.30;;;;;;5121067;27;19958;-66
2023/07/08 02:16:06;;;;;;;;;;;21.30;64.80;;;;;;5126926;27;19920;-66
2023/07/08 02:18:32;;;;;;;;;;;21.30;64.80;;;;;;5111417;28;19919;-66
2023/07/08 02:20:57;;;;;;;;;;;21.30;65.00;;;;;;5111593;28;19968;-66
2023/07/08 02:23:24;;;;;;;;;;;21.20;64.90;;;;;;5109963;28;19961;-66
2023/07/08 02:25:50;;;;;;;;;;;21.20;64.90;;;;;;5097354;28;20478;-66
2023/07/08 02:28:15;;;;;;;;;;;21.20;65.00;;;;;;5111304;28;20002;-66
2023/07/08 02:30:41;;;;;;;;;;;21.20;65.00;;;;;;5110944;28;20014;-66
2023/07/08 02:33:06;;;;;;;;;;;21.10;65.10;;;;;;5111491;28;19911;-66
2023/07/08 02:35:32;;;;;;;;;;;21.10;64.80;;;;;;5111026;28;19908;-66
2023/07/08 02:37:57;;;;;;;;;;;21.10;65.10;;;;;;5110924;28;19946;-66
2023/07/08 02:40:23;;;;;;;;;;;21.10;65.30;;;;;;5110939;28;19922;-66
2023/07/08 02:42:49;;;;;;;;;;;21.10;65.20;;;;;;5111318;28;19912;-66
2023/07/08 02:45:15;;;;;;;;;;;21.00;65.20;;;;;;5111156;28;19957;-66
2023/07/08 02:47:41;;;;;;;;;;;21.00;65.30;;;;;;5110950;28;19923;-66
2023/07/08 02:50:08;;;;;;;;;;;21.00;65.40;;;;;;5110935;28;20349;-66
2023/07/08 02:52:34;;;;;;;;;;;21.00;65.60;;;;;;5110831;28;20014;-66
2023/07/08 02:54:59;;;;;;;;;;;20.90;65.60;;;;;;5097941;28;20007;-66
2023/07/08 02:57:25;;;;;;;;;;;20.90;65.50;;;;;;5108170;27;19949;-66
2023/07/08 02:59:50;;;;;;;;;;;20.90;65.80;;;;;;5102150;27;19923;-66
2023/07/08 03:02:16;;;;;;;;;;;20.90;65.50;;;;;;5109667;28;20005;-66
2023/07/08 03:04:41;;;;;;;;;;;20.90;65.80;;;;;;5110208;28;19912;-66
2023/07/08 03:07:11;;;;;;;;;;;20.80;65.60;;;;;;5108552;28;19912;-66
2023/07/08 03:09:40;;;;;;;;;;;20.80;65.70;;;;;;5109776;28;19981;-66
2023/07/08 03:12:06;;;;;;;;;;;20.80;66.00;;;;;;5110087;28;19998;-66
2023/07/08 03:14:32;;;;;;;;;;;20.70;65.90;;;;;;5109923;28;20421;-66
2023/07/08 03:16:57;;;;;;;;;;;20.80;65.90;;;;;;5109787;28;19998;-66
2023/07/08 03:19:23;;;;;;;;;;;20.80;65.90;;;;;;5110151;28;19912;-66
2023/07/08 03:21:48;;;;;;;;;;;20.70;65.90;;;;;;5110142;28;19911;-66
2023/07/08 03:24:17;;;;;;;;;;;20.70;66.00;;;;;;5103353;28;20312;-66
2023/07/08 03:26:44;;;;;;;;;;;20.70;65.90;;;;;;5102833;28;19912;-66
2023/07/08 03:29:16;;;;;;;;;;;20.70;66.00;;;;;;5109982;28;19915;-66
2023/07/08 03:31:43;;;;;;;;;;;20.70;65.90;;;;;;5109787;28;19979;-66
2023/07/08 03:34:17;;;;;;;;;;;20.70;66.00;;;;;;5109782;27;19936;-66
2023/07/08 03:36:50;;;;;;;;;;;20.60;66.00;;;;;;5109494;28;19916;-66
2023/07/08 03:39:16;;;;;;;;;;;20.60;65.50;;;;;;5109191;28;19911;-67
2023/07/08 03:41:42;;;;;;;;;;;20.60;65.90;;;;;;5109657;28;20023;-66
2023/07/08 03:44:07;;;;;;;;;;;20.60;66.20;;;;;;5108877;28;19999;-66
2023/07/08 03:46:33;;;;;;;;;;;20.60;66.20;;;;;;5107941;28;20686;-66
2023/07/08 03:48:58;;;;;;;;;;;20.60;66.50;;;;;;5109537;28;19968;-66
2023/07/08 03:51:25;;;;;;;;;;;20.60;66.30;;;;;;5109671;28;20006;-66
2023/07/08 03:53:51;;;;;;;;;;;20.60;66.50;;;;;;5105817;28;19908;-66
2023/07/08 03:56:17;;;;;;;;;;;20.50;66.50;;;;;;5107501;28;19912;-66
2023/07/08 03:58:42;;;;;;;;;;;20.50;66.50;;;;;;5109044;28;19907;-66
2023/07/08 04:01:13;;;;;;;;;;;20.50;66.70;;;;;;5109512;28;20667;-66
2023/07/08 04:03:38;;;;;;;;;;;20.50;66.60;;;;;;5109205;28;19911;-66
2023/07/08 04:06:04;;;;;;;;;;;20.50;66.60;;;;;;5108933;28;19915;-66
2023/07/08 04:08:29;;;;;;;;;;;20.50;66.60;;;;;;5109467;28;19937;-66
2023/07/08 04:10:55;;;;;;;;;;;20.40;66.70;;;;;;5108047;28;19908;-66
2023/07/08 04:13:20;;;;;;;;;;;20.50;66.80;;;;;;5107919;28;20249;-66
2023/07/08 04:15:49;;;;;;;;;;;20.40;66.90;;;;;;5108896;28;19911;-66
2023/07/08 04:18:15;;;;;;;;;;;20.40;67.00;;;;;;5109436;28;19964;-66
2023/07/08 04:20:40;;;;;;;;;;;20.40;67.00;;;;;;5110902;27;19947;-66
2023/07/08 04:23:06;;;;;;;;;;;20.40;67.20;;;;;;5109011;27;19916;-66
2023/07/08 04:25:32;;;;;;;;;;;20.30;67.10;;;;;;5091327;28;19948;-66
2023/07/08 04:27:57;;;;;;;;;;;20.30;67.00;;;;;;5088692;28;19912;-66
2023/07/08 04:30:24;;;;;;;;;;;20.30;67.20;;;;;;5088426;28;19919;-66
2023/07/08 04:32:50;;;;;;;;;;;20.30;67.00;;;;;;5088943;28;20468;-66
2023/07/08 04:35:16;;;;;;;;;;;20.30;67.10;;;;;;5105202;28;19911;-66
2023/07/08 04:37:41;;;;;;;;;;;20.30;67.20;;;;;;5105876;28;19923;-66
2023/07/08 04:40:14;;;;;;;;;;;20.20;67.30;;;;;;5140092;27;19946;-66
2023/07/08 04:42:39;;;;;;;;;;;20.30;67.20;;;;;;5108759;28;19957;-66
2023/07/08 04:45:05;;;;;;;;;;;20.20;67.30;;;;;;5108750;28;20365;-66
2023/07/08 04:47:33;;;;;;;;;;;20.20;67.10;;;;;;5108732;28;19994;-66
2023/07/08 04:49:59;;;;;;;;;;;20.20;67.50;;;;;;5108474;28;19912;-66
2023/07/08 04:52:24;;;;;;;;;;;20.20;67.30;;;;;;5108765;28;19919;-66
2023/07/08 04:54:50;;;;;;;;;;;20.20;67.40;;;;;;5099191;28;19959;-66
2023/07/08 04:57:16;;;;;;;;;;;20.20;67.30;;;;;;5110393;28;19916;-66
2023/07/08 04:59:42;;;;;;;;;;;20.20;67.50;;;;;;5112681;27;19916;-66
2023/07/08 05:02:07;;;;;;;;;;;20.20;67.50;;;;;;5113078;27;20689;-66
2023/07/08 05:04:33;;;;;;;;;;;20.20;67.60;;;;;;5112394;28;19911;-66
2023/07/08 05:06:58;;;;;;;;;;;20.20;67.60;;;;;;5112591;28;19924;-66
2023/07/08 05:09:25;;;;;;;;;;;20.20;67.70;;;;;;5112674;28;19943;-66
2023/07/08 05:11:51;;;;;;;;;;;20.20;67.60;;;;;;5112799;28;19919;-66
2023/07/08 05:14:17;;;;;;;;;;;20.10;67.80;;;;;;5111344;28;20296;-66
2023/07/08 05:16:42;;;;;;;;;;;20.10;67.70;;;;;;5111099;28;19912;-66
2023/07/08 05:19:08;;;;;;;;;;;20.20;67.70;;;;;;5112803;28;19919;-66
2023/07/08 05:21:34;;;;;;;;;;;20.20;67.60;;;;;;5112690;28;19915;-68
2023/07/08 05:24:03;;;;;;;;;;;20.10;67.80;;;;;;5108158;28;20333;-66
2023/07/08 05:26:28;;;;;;;;;;;20.10;67.70;;;;;;5103400;28;19912;-66
2023/07/08 05:28:56;;;;;;;;;;;20.10;67.80;;;;;;5111677;28;20231;-66
2023/07/08 05:31:21;;;;;;;;;;;20.10;68.00;;;;;;5112631;28;19933;-66
2023/07/08 05:33:47;;;;;;;;;;;20.10;67.80;;;;;;5112493;28;19912;-66
2023/07/08 05:36:12;;;;;;;;;;;20.10;68.00;;;;;;5112388;28;19931;-66
2023/07/08 05:38:38;;;;;;;;;;;20.10;68.00;;;;;;5109261;28;19994;-66
2023/07/08 05:41:03;;;;;;;;;;;20.10;67.90;;;;;;5110545;28;19955;-66
2023/07/08 05:43:29;;;;;;;;;;;20.10;68.10;;;;;;5111633;28;19934;-66
2023/07/08 05:46:01;;;;;;;;;;;20.10;68.10;;;;;;5111575;28;19915;-66
2023/07/08 05:48:27;;;;;;;;;;;20.10;68.00;;;;;;5112004;28;19939;-66
2023/07/08 05:50:52;;;;;;;;;;;20.10;67.90;;;;;;5112401;28;20561;-66
2023/07/08 05:53:19;;;;;;;;;;;20.10;68.00;;;;;;5112355;28;19912;-66
2023/07/08 05:55:45;;;;;;;;;;;20.20;68.10;;;;;;5097736;28;19918;-66
2023/07/08 05:58:10;;;;;;;;;;;20.10;68.10;;;;;;5111986;28;19912;-66
2023/07/08 06:00:36;;;;;;;;;;;20.10;68.10;;;;;;5110210;28;19958;-66
2023/07/08 06:03:02;;;;;;;;;;;20.10;68.10;;;;;;5112056;27;19908;-66
2023/07/08 06:05:27;;;;;;;;;;;20.10;68.10;;;;;;5110959;28;19908;-66
2023/07/08 06:07:53;;;;;;;;;;;20.20;68.10;;;;;;5111852;28;20683;-66
2023/07/08 06:10:18;;;;;;;;;;;20.10;68.00;;;;;;5111656;28;19912;-66
2023/07/08 06:12:44;;;;;;;;;;;20.10;68.10;;;;;;5111862;27;19937;-66
2023/07/08 06:15:09;;;;;;;;;;;20.20;68.10;;;;;;5111467;27;20523;-66
2023/07/08 06:17:35;;;;;;;;;;;20.10;68.30;;;;;;5111460;28;19951;-66
2023/07/08 06:20:01;;;;;;;;;;;20.20;68.20;;;;;;5111439;28;20299;-66
2023/07/08 06:22:27;;;;;;;;;;;20.20;68.30;;;;;;5111489;27;19991;-66
2023/07/08 06:24:52;;;;;;;;;;;20.20;68.30;;;;;;5117496;27;19994;-66
2023/07/08 06:27:18;;;;;;;;;;;20.20;68.20;;;;;;5111192;28;19916;-66
2023/07/08 06:29:45;;;;;;;;;;;20.20;68.30;;;;;;5111100;28;19916;-66
2023/07/08 06:32:10;;;;;;;;;;;20.20;68.20;;;;;;5111572;28;20346;-66
2023/07/08 06:34:36;;;;;;;;;;;20.20;68.30;;;;;;5111401;28;20007;-66
2023/07/08 06:37:01;;;;;;;;;;;20.20;68.20;;;;;;5111071;28;19947;-66
2023/07/08 06:39:27;;;;;;;;;;;20.20;68.10;;;;;;5107861;28;19935;-66
2023/07/08 06:41:52;;;;;;;;;;;20.20;68.20;;;;;;5109691;28;19990;-66
2023/07/08 06:44:18;;;;;;;;;;;20.20;68.20;;;;;;5110997;28;20022;-66
2023/07/08 06:46:43;;;;;;;;;;;20.30;68.30;;;;;;5110764;28;19912;-66
2023/07/08 06:49:09;;;;;;;;;;;20.30;68.20;;;;;;5110949;28;19916;-66
2023/07/08 06:51:35;;;;;;;;;;;20.30;68.20;;;;;;5110997;28;19908;-66
2023/07/08 06:54:04;;;;;;;;;;;20.30;68.10;;;;;;5106183;28;20358;-66
2023/07/08 06:56:30;;;;;;;;;;;20.30;68.10;;;;;;5101863;28;20010;-66
2023/07/08 06:58:56;;;;;;;;;;;20.30;68.10;;;;;;5110273;27;19991;-66
2023/07/08 07:01:21;;;;;;;;;;;20.30;68.10;;;;;;5110863;28;20014;-66
2023/07/08 07:03:47;;;;;;;;;;;20.30;68.00;;;;;;5110799;28;19911;-66
2023/07/08 07:06:12;;;;;;;;;;;20.40;68.10;;;;;;5110013;28;19912;-66
2023/07/08 07:08:38;;;;;;;;;;;20.40;68.00;;;;;;5110756;28;19919;-66
2023/07/08 07:11:03;;;;;;;;;;;20.40;67.80;;;;;;5110739;28;19911;-66
2023/07/08 07:13:29;;;;;;;;;;;20.40;68.20;;;;;;5110612;28;20392;-66
2023/07/08 07:15:54;;;;;;;;;;;20.40;67.70;;;;;;5110237;27;19935;-66
2023/07/08 07:18:20;;;;;;;;;;;20.40;67.70;;;;;;5109586;28;19912;-66
2023/07/08 07:20:50;;;;;;;;;;;20.50;67.80;;;;;;5110331;28;19911;-67
2023/07/08 07:23:15;;;;;;;;;;;20.50;67.70;;;;;;5110220;28;19920;-66
2023/07/08 07:25:41;;;;;;;;;;;20.50;67.60;;;;;;5096252;28;19916;-66
2023/07/08 07:28:07;;;;;;;;;;;20.50;67.70;;;;;;5110402;28;19908;-66
2023/07/08 07:30:33;;;;;;;;;;;20.50;67.50;;;;;;5110070;28;19908;-67
2023/07/08 07:32:59;;;;;;;;;;;20.60;67.80;;;;;;5110136;28;19912;-66
2023/07/08 07:35:25;;;;;;;;;;;20.60;67.50;;;;;;5109643;28;20396;-66
2023/07/08 07:37:50;;;;;;;;;;;20.60;67.40;;;;;;5105712;28;20064;-66
2023/07/08 07:40:16;;;;;;;;;;;20.60;67.20;;;;;;5109362;28;19994;-66
2023/07/08 07:42:42;;;;;;;;;;;20.60;67.30;;;;;;5110088;28;19916;-66
2023/07/08 07:45:09;;;;;;;;;;;20.60;67.20;;;;;;5109635;28;19943;-66
2023/07/08 07:47:35;;;;;;;;;;;20.70;67.10;;;;;;5109791;28;19953;-66
2023/07/08 07:50:01;;;;;;;;;;;20.70;67.10;;;;;;5109715;28;19918;-66
2023/07/08 07:52:27;;;;;;;;;;;20.70;67.30;;;;;;5108382;28;20292;-66
2023/07/08 07:54:54;;;;;;;;;;;20.80;67.20;;;;;;5097607;28;19912;-66
2023/07/08 07:57:19;;;;;;;;;;;20.80;67.00;;;;;;5107613;28;20377;-66
2023/07/08 07:59:46;;;;;;;;;;;20.80;67.10;;;;;;5109491;28;19965;-66
2023/07/08 08:02:11;;;;;;;;;;;20.80;67.00;;;;;;5108037;28;19923;-66
2023/07/08 08:04:37;;;;;;;;;;;20.90;67.00;;;;;;5109534;28;19908;-66
2023/07/08 08:07:03;;;;;;;;;;;20.90;66.80;;;;;;5109179;28;20352;-66
2023/07/08 08:09:28;;;;;;;;;;;20.90;66.90;;;;;;5109321;28;19964;-66
2023/07/08 08:11:55;;;;;;;;;;;21.00;66.80;;;;;;5109509;28;19965;-66
2023/07/08 08:14:20;;;;;;;;;;;21.00;66.80;;;;;;5109570;28;20025;-66
2023/07/08 08:16:46;;;;;;;;;;;21.00;67.00;;;;;;5107726;28;20661;-66
2023/07/08 08:19:11;;;;;;;;;;;21.10;67.10;;;;;;5109152;28;19938;-66
2023/07/08 08:21:37;;;;;;;;;;;21.10;66.90;;;;;;5109210;28;19916;-67
2023/07/08 08:24:02;;;;;;;;;;;21.20;67.10;;;;;;5108690;28;19946;-66
2023/07/08 08:26:28;;;;;;;;;;;21.20;67.10;;;;;;5109126;28;19912;-66
2023/07/08 08:28:54;;;;;;;;;;;21.30;66.80;;;;;;5108618;28;19916;-66
2023/07/08 08:31:19;;;;;;;;;;;21.30;67.20;;;;;;5118362;27;19918;-66
2023/07/08 08:33:45;;;;;;;;;;;21.40;67.00;;;;;;5125670;27;19919;-66
2023/07/08 08:36:11;;;;;;;;;;;21.40;66.80;;;;;;5108805;28;19984;-66
2023/07/08 08:38:36;;;;;;;;;;;21.50;66.70;;;;;;5108608;28;19943;-66
2023/07/08 08:41:11;;;;;;;;;;;21.60;66.80;;;;;;5108493;28;19950;-66
2023/07/08 08:43:39;;;;;;;;;;;21.60;66.80;;;;;;5109041;28;19908;-66
2023/07/08 08:46:04;;;;;;;;;;;21.70;66.80;;;;;;5107600;28;19931;-66
2023/07/08 08:48:32;;;;;;;;;;;21.70;66.70;;;;;;5109004;28;20349;-66
2023/07/08 08:51:09;;;;;;;;;;;21.80;66.60;;;;;;5108815;28;19915;-66
2023/07/08 08:53:35;;;;;;;;;;;21.80;67.60;;;;;;5108500;28;19912;-66
2023/07/08 08:56:05;;;;;;;;;;;21.90;66.70;;;;;;5106939;28;19908;-66
2023/07/08 08:58:37;;;;;;;;;;;22.00;66.40;;;;;;5101932;28;20368;-66
2023/07/08 09:01:04;;;;;;;;;;;22.10;66.50;;;;;;5104099;28;19920;-66
2023/07/08 09:03:40;;;;;;;;;;;22.10;65.90;;;;;;5108912;28;19908;-67
2023/07/08 09:06:14;;;;;;;;;;;22.30;65.90;;;;;;5108270;28;19912;-66
2023/07/08 09:08:40;;;;;;;;;;;22.40;65.80;;;;;;5107201;28;19911;-66
2023/07/08 09:11:15;;;;;;;;;;;22.50;65.60;;;;;;5108574;28;19912;-66
2023/07/08 09:13:40;;;;;;;;;;;22.50;65.60;;;;;;5108710;28;19919;-66
2023/07/08 09:16:07;;;;;;;;;;;22.60;65.50;;;;;;5106477;28;19912;-66
2023/07/08 09:18:36;;;;;;;;;;;22.70;65.60;;;;;;5092593;28;19989;-66
2023/07/08 09:21:06;;;;;;;;;;;22.70;65.30;;;;;;5105417;28;19916;-66
2023/07/08 09:23:34;;;;;;;;;;;22.80;65.10;;;;;;5108493;28;20682;-66
2023/07/08 09:26:09;;;;;;;;;;;22.90;64.90;;;;;;5095429;28;19918;-66
2023/07/08 09:28:36;;;;;;;;;;;22.90;65.00;;;;;;5108678;28;20636;-66
2023/07/08 09:31:04;;;;;;;;;;;22.90;65.20;;;;;;5107023;28;19916;-66
2023/07/08 09:33:29;;;;;;;;;;;23.00;65.00;;;;;;5108734;28;19912;-66
2023/07/08 09:35:54;;;;;;;;;;;23.10;65.20;;;;;;5108395;28;19942;-66
2023/07/08 09:38:22;;;;;;;;;;;23.10;64.90;;;;;;5108438;28;19919;-66
2023/07/08 09:40:53;;;;;;;;;;;23.20;64.90;;;;;;5107124;28;20479;-66
2023/07/08 09:43:26;;;;;;;;;;;23.30;64.70;;;;;;5112553;28;19923;-66
2023/07/08 09:45:56;;;;;;;;;;;23.50;64.70;;;;;;5111862;28;19916;-66
2023/07/08 09:48:26;;;;;;;;;;;23.50;64.60;;;;;;5109959;28;19922;-66
2023/07/08 09:50:52;;;;;;;;;;;23.60;64.40;;;;;;5111716;28;19991;-66
2023/07/08 09:53:18;;;;;;;;;;;23.70;64.40;;;;;;5110181;28;19914;-66
2023/07/08 09:55:44;;;;;;;;;;;23.70;64.20;;;;;;5109414;28;20287;-66
2023/07/08 09:58:13;;;;;;;;;;;23.80;64.00;;;;;;5111435;28;19964;-66
2023/07/08 10:00:39;;;;;;;;;;;23.80;64.10;;;;;;5111354;28;20698;-66
2023/07/08 10:03:09;;;;;;;;;;;23.90;64.00;;;;;;5110070;28;19915;-66
2023/07/08 10:05:36;;;;;;;;;;;24.00;63.90;;;;;;5110818;28;19920;-66
2023/07/08 10:08:04;;;;;;;;;;;24.10;63.90;;;;;;5109635;28;19957;-66
2023/07/08 10:10:32;;;;;;;;;;;24.10;63.70;;;;;;5110718;27;19998;-66
2023/07/08 10:12:59;;;;;;;;;;;24.20;63.60;;;;;;5111181;28;19916;-66
2023/07/08 10:15:42;;;;;;;;;;;24.20;63.50;;;;;;5108707;28;19912;-66
2023/07/08 10:18:14;;;;;;;;;;;24.30;63.50;;;;;;5109654;28;19919;-66
2023/07/08 10:20:46;;;;;;;;;;;24.40;63.60;;;;;;5108201;28;19912;-66
2023/07/08 10:23:11;;;;;;;;;;;24.50;63.80;;;;;;5113906;27;19924;-66
2023/07/08 10:25:40;;;;;;;;;;;24.60;63.80;;;;;;5110378;28;19926;-66
2023/07/08 10:28:20;;;;;;;;;;;24.70;64.00;;;;;;5111504;28;19916;-66
2023/07/08 10:30:57;;;;;;;;;;;24.70;64.00;;;;;;5129283;27;19929;-66
2023/07/08 10:33:42;;;;;;;;;;;24.80;63.80;;;;;;5130906;27;19912;-66
2023/07/08 10:36:36;;;;;;;;;;;24.90;63.90;;;;;;5111063;28;19915;-66
2023/07/08 10:39:14;;;;;;;;;;;25.00;64.00;;;;;;5098568;28;19919;-66
2023/07/08 10:41:42;;;;;;;;;;;25.20;63.90;;;;;;5111155;28;19923;-66
2023/07/08 10:44:28;;;;;;;;;;;25.30;63.80;;;;;;5110949;28;19945;-66
2023/07/08 10:47:05;;;;;;;;;;;25.30;64.00;;;;;;5110563;28;19911;-66
2023/07/08 10:49:35;;;;;;;;;;;25.50;63.40;;;;;;5110892;28;19916;-66
2023/07/08 10:52:10;;;;;;;;;;;25.50;64.00;;;;;;5111018;28;19937;-66
2023/07/08 10:54:42;;;;;;;;;;;25.60;63.90;;;;;;5099905;28;19999;-66
2023/07/08 10:57:25;;;;;;;;;;;25.80;64.00;;;;;;5107222;28;19908;-66
2023/07/08 11:00:03;;;;;;;;;;;25.90;63.80;;;;;;5110676;28;19964;-66
2023/07/08 11:02:44;;;;;;;;;;;26.10;64.20;;;;;;5110592;28;19912;-66
2023/07/08 11:05:09;;;;;;;;;;;26.20;63.50;;;;;;5110531;28;19954;-66
2023/07/08 11:07:35;;;;;;;;;;;26.30;64.50;;;;;;5110618;28;19951;-66
2023/07/08 11:10:04;;;;;;;;;;;26.50;64.20;;;;;;5110667;28;19942;-66
2023/07/08 11:12:30;;;;;;;;;;;26.50;63.90;;;;;;5110599;28;20348;-66
2023/07/08 11:14:59;;;;;;;;;;;26.70;64.40;;;;;;5110358;28;19947;-66
2023/07/08 11:17:30;;;;;;;;;;;26.80;64.40;;;;;;5110265;28;19915;-66
2023/07/08 11:20:10;;;;;;;;;;;26.90;64.70;;;;;;5110202;28;20002;-66
2023/07/08 11:22:39;;;;;;;;;;;27.10;64.60;;;;;;5110344;28;19920;-66
2023/07/08 11:25:07;;;;;;;;;;;27.20;64.50;;;;;;5110206;28;20374;-66
2023/07/08 11:27:35;;;;;;;;;;;27.30;64.40;;;;;;5110080;28;20007;-66
2023/07/08 11:30:12;;;;;;;;;;;27.40;64.70;;;;;;5109975;28;19918;-66
2023/07/08 11:32:38;;;;;;;;;;;27.50;64.30;;;;;;5108654;28;20622;-66
2023/07/08 11:35:06;;;;;;;;;;;27.60;63.80;;;;;;5110105;28;20425;-66
2023/07/08 11:37:32;;;;;;;;;;;27.70;63.80;;;;;;5110126;28;20380;-66
2023/07/08 11:40:00;;;;;;;;;;;27.80;63.40;;;;;;5105847;28;19991;-66
2023/07/08 11:42:31;;;;;;;;;;;27.90;64.00;;;;;;5110202;28;19907;-66
2023/07/08 11:44:59;;;;;;;;;;;28.00;64.10;;;;;;5109788;27;19954;-66
2023/07/08 11:47:32;;;;;;;;;;;28.10;63.80;;;;;;5109962;28;19912;-66
2023/07/08 11:49:58;;;;;;;;;;;28.20;63.80;;;;;;5109863;28;19908;-66
2023/07/08 11:52:24;;;;;;;;;;;28.30;63.70;;;;;;5109981;28;20583;-66
2023/07/08 11:54:56;;;;;;;;;;;28.40;63.90;;;;;;5098490;28;19908;-66
2023/07/08 11:57:28;;;;;;;;;;;28.40;64.20;;;;;;5106924;28;19956;-66
2023/07/08 12:00:13;;;;;;;;;;;28.50;63.90;;;;;;5109607;28;19916;-66
2023/07/08 12:02:53;;;;;;;;;;;28.60;63.80;;;;;;5109697;28;19919;-66
2023/07/08 12:05:29;;;;;;;;;;;28.70;63.80;;;;;;5108439;28;20416;-66
2023/07/08 12:07:58;;;;;;;;;;;28.80;63.80;;;;;;5109585;28;19935;-66
2023/07/08 12:10:23;;;;;;;;;;;28.90;64.00;;;;;;5107967;28;20649;-66
2023/07/08 12:12:49;;;;;;;;;;;29.00;63.60;;;;;;5110509;27;19937;-66
2023/07/08 12:15:17;;;;;;;;;;;29.10;63.70;;;;;;5129828;27;19937;-66
2023/07/08 12:17:43;;;;;;;;;;;29.20;63.80;;;;;;5130026;27;19939;-66
2023/07/08 12:20:17;;;;;;;;;;;29.20;63.60;;;;;;5119884;27;20009;-66
2023/07/08 12:22:42;;;;;;;;;;;29.30;63.30;;;;;;5109206;28;19920;-66
2023/07/08 12:25:13;;;;;;;;;;;29.40;63.40;;;;;;5095310;28;20276;-66
2023/07/08 12:27:38;;;;;;;;;;;29.50;63.20;;;;;;5124328;27;20031;-66
2023/07/08 12:30:04;;;;;;;;;;;29.60;63.70;;;;;;5129526;27;20356;-66
2023/07/08 12:32:30;;;;;;;;;;;29.70;63.60;;;;;;5128419;27;19911;-66
2023/07/08 12:34:55;;;;;;;;;;;29.70;63.50;;;;;;5115710;27;19957;-66
2023/07/08 12:37:21;;;;;;;;;;;29.80;63.40;;;;;;5109162;28;19922;-66
2023/07/08 12:39:54;;;;;;;;;;;29.80;63.20;;;;;;5105827;28;19908;-66
2023/07/08 12:42:20;;;;;;;;;;;29.90;63.40;;;;;;5109284;28;19961;-66
2023/07/08 12:44:46;;;;;;;;;;;30.00;63.10;;;;;;5109069;28;19916;-66
2023/07/08 12:47:11;;;;;;;;;;;30.00;63.30;;;;;;5109079;28;19912;-66
2023/07/08 12:49:37;;;;;;;;;;;30.10;62.80;;;;;;5107583;28;20340;-66
2023/07/08 12:52:03;;;;;;;;;;;30.10;62.70;;;;;;5107570;28;19911;-67
2023/07/08 12:54:28;;;;;;;;;;;30.30;62.30;;;;;;5100607;28;19912;-66
2023/07/08 12:56:54;;;;;;;;;;;30.30;62.70;;;;;;5101842;28;19911;-66
2023/07/08 12:59:21;;;;;;;;;;;30.40;62.30;;;;;;5108868;28;20464;-66
2023/07/08 13:01:48;;;;;;;;;;;30.40;62.60;;;;;;5109037;28;19912;-67
2023/07/08 13:04:14;;;;;;;;;;;30.50;62.50;;;;;;5108648;28;19916;-66
2023/07/08 13:06:40;;;;;;;;;;;30.60;62.40;;;;;;5108411;28;19911;-66
2023/07/08 13:09:24;;;;;;;;;;;30.60;62.10;;;;;;5108755;28;20311;-66
2023/07/08 13:11:52;;;;;;;;;;;30.60;62.00;;;;;;5109088;28;19915;-66
2023/07/08 13:14:19;;;;;;;;;;;30.70;62.00;;;;;;5108830;28;19995;-66
2023/07/08 13:16:45;;;;;;;;;;;30.80;61.90;;;;;;5110946;28;20309;-66
2023/07/08 13:19:12;;;;;;;;;;;30.90;61.40;;;;;;5112696;28;19942;-66
2023/07/08 13:21:37;;;;;;;;;;;30.90;61.40;;;;;;5112739;28;19965;-67
2023/07/08 13:24:07;;;;;;;;;;;31.00;61.70;;;;;;5107606;27;19920;-66
2023/07/08 13:26:32;;;;;;;;;;;31.10;61.70;;;;;;5103766;28;19912;-66
2023/07/08 13:29:04;;;;;;;;;;;31.10;62.00;;;;;;5112573;28;19957;-66
2023/07/08 13:31:34;;;;;;;;;;;31.20;61.60;;;;;;5112762;28;19912;-66
2023/07/08 13:34:05;;;;;;;;;;;31.20;61.40;;;;;;5112548;28;20397;-66
2023/07/08 13:36:35;;;;;;;;;;;31.30;61.30;;;;;;5112061;27;19962;-67
2023/07/08 13:39:08;;;;;;;;;;;31.40;61.30;;;;;;5109233;27;19998;-66
2023/07/08 13:41:34;;;;;;;;;;;31.40;61.30;;;;;;5110629;28;19916;-66
2023/07/08 13:44:07;;;;;;;;;;;31.50;61.30;;;;;;5112353;28;19922;-66
2023/07/08 13:46:37;;;;;;;;;;;31.50;61.70;;;;;;5111926;28;19911;-66
2023/07/08 13:49:14;;;;;;;;;;;31.60;61.60;;;;;;5110776;28;19916;-66
2023/07/08 13:51:40;;;;;;;;;;;31.60;61.50;;;;;;5112177;28;19912;-66
2023/07/08 13:54:13;;;;;;;;;;;31.70;61.30;;;;;;5105477;28;19919;-67
2023/07/08 13:56:40;;;;;;;;;;;31.70;60.50;;;;;;5104090;28;19918;-67
2023/07/08 13:59:07;;;;;;;;;;;31.80;60.60;;;;;;5111901;28;20359;-66
2023/07/08 14:01:34;;;;;;;;;;;31.80;60.50;;;;;;5111797;28;19962;-66
2023/07/08 14:04:03;;;;;;;;;;;31.90;60.30;;;;;;5111883;28;19938;-66
2023/07/08 14:06:30;;;;;;;;;;;31.90;60.50;;;;;;5110235;28;20365;-66
2023/07/08 14:09:03;;;;;;;;;;;31.90;60.10;;;;;;5110243;28;19911;-66
2023/07/08 14:11:29;;;;;;;;;;;32.00;59.90;;;;;;5111639;28;19918;-66
2023/07/08 14:13:54;;;;;;;;;;;32.10;60.10;;;;;;5111653;28;19908;-66
2023/07/08 14:16:20;;;;;;;;;;;32.10;60.40;;;;;;5111092;28;19951;-66
2023/07/08 14:18:45;;;;;;;;;;;32.20;60.80;;;;;;5111592;28;20528;-67